Time;durP1;ratioP1;P1;durP2;ratioP2;P2;SDS_P1;SDS_P2;PMS_P1;PMS_P2;Temp;Humidity;BMP_temperature;BMP_pressure;BME280_temperature;BME280_humidity;BME280_pressure;Samples;Min_cycle;Max_cycle;Signal;HPM_P1;HPM_P2
2023/01/15 00:00:46;;;;;;;0.60;0.60;;;12.70;99.90;;;;;;937131;149;27379;-79
2023/01/15 00:03:12;;;;;;;0.40;0.40;;;12.70;99.90;;;;;;938465;149;27430;-80
2023/01/15 00:05:39;;;;;;;0.43;0.43;;;12.70;99.90;;;;;;937293;149;27360;-78
2023/01/15 00:08:06;;;;;;;0.40;0.40;;;12.70;99.90;;;;;;935686;149;27391;-79
2023/01/15 00:10:32;;;;;;;0.50;0.50;;;12.70;99.90;;;;;;936398;149;27378;-79
2023/01/15 00:12:59;;;;;;;0.40;0.40;;;12.70;99.90;;;;;;936952;149;27345;-79
2023/01/15 00:15:25;;;;;;;0.40;0.40;;;12.80;99.90;;;;;;935696;149;27476;-80
2023/01/15 00:17:52;;;;;;;0.50;0.50;;;12.80;99.90;;;;;;937953;149;27475;-81
2023/01/15 00:20:19;;;;;;;0.70;0.70;;;12.80;99.90;;;;;;939015;149;27484;-78
2023/01/15 00:22:45;;;;;;;0.57;0.57;;;12.80;99.90;;;;;;936928;149;27358;-80
2023/01/15 00:27:57;;;;;;;0.50;0.50;;;12.80;99.90;;;;;;936039;149;27403;-79
2023/01/15 00:30:23;;;;;;;0.53;0.50;;;12.80;99.90;;;;;;937662;149;27369;-78
2023/01/15 00:32:50;;;;;;;0.43;0.43;;;12.80;99.90;;;;;;935474;149;27438;-78
2023/01/15 00:35:16;;;;;;;0.57;0.57;;;12.80;99.90;;;;;;937934;149;27376;-78
2023/01/15 00:37:43;;;;;;;0.30;0.30;;;12.90;99.90;;;;;;936646;149;27327;-79
2023/01/15 00:40:10;;;;;;;0.50;0.50;;;12.90;99.90;;;;;;937419;149;27942;-79
2023/01/15 00:42:36;;;;;;;0.63;0.63;;;12.90;99.90;;;;;;938130;149;27417;-78
2023/01/15 00:45:08;;;;;;;0.40;0.40;;;12.90;99.90;;;;;;936933;149;27380;-78
2023/01/15 00:47:30;;;;;;;0.50;0.50;;;12.90;99.90;;;;;;935743;149;27370;-80
2023/01/15 00:49:56;;;;;;;0.70;0.47;;;12.90;99.90;;;;;;937197;149;27497;-78
2023/01/15 00:52:23;;;;;;;0.57;0.57;;;12.90;99.90;;;;;;936605;149;27371;-79
2023/01/15 00:54:49;;;;;;;1.12;0.68;;;12.90;99.90;;;;;;936210;149;27922;-79
2023/01/15 00:57:16;;;;;;;0.60;0.60;;;13.00;99.90;;;;;;936537;149;27394;-79
2023/01/15 00:59:42;;;;;;;0.63;0.50;;;13.00;99.90;;;;;;936875;149;27374;-78
2023/01/15 01:02:09;;;;;;;0.47;0.40;;;13.00;99.90;;;;;;936603;149;27444;-78
2023/01/15 01:04:36;;;;;;;0.62;0.50;;;13.00;99.90;;;;;;936290;149;27380;-80
2023/01/15 01:07:02;;;;;;;0.60;0.60;;;13.00;99.90;;;;;;938075;149;27399;-79
2023/01/15 01:09:29;;;;;;;0.40;0.40;;;13.00;99.90;;;;;;937257;149;27378;-78
2023/01/15 01:11:55;;;;;;;0.87;0.50;;;13.00;99.90;;;;;;937293;149;27446;-78
2023/01/15 01:14:22;;;;;;;0.40;0.40;;;13.10;99.90;;;;;;936495;149;27365;-78
2023/01/15 01:16:49;;;;;;;0.50;0.50;;;13.10;99.90;;;;;;938349;149;27449;-80
2023/01/15 01:19:15;;;;;;;0.40;0.40;;;13.10;99.90;;;;;;937517;149;27403;-78
2023/01/15 01:21:42;;;;;;;0.60;0.60;;;13.10;99.90;;;;;;937048;149;27406;-78
2023/01/15 01:24:11;;;;;;;0.73;0.60;;;13.10;99.90;;;;;;938113;149;27492;-79
2023/01/15 01:26:38;;;;;;;0.30;0.30;;;13.10;99.90;;;;;;936554;149;27275;-79
2023/01/15 01:29:04;;;;;;;0.50;0.50;;;13.10;99.90;;;;;;938382;149;27895;-80
2023/01/15 01:31:31;;;;;;;0.50;0.50;;;13.10;99.90;;;;;;935151;149;27417;-79
2023/01/15 01:33:57;;;;;;;0.50;0.50;;;13.10;99.90;;;;;;936295;149;27402;-79
2023/01/15 01:36:30;;;;;;;0.77;0.50;;;13.10;99.90;;;;;;938063;149;27381;-79
2023/01/15 01:38:56;;;;;;;0.40;0.40;;;13.10;99.90;;;;;;937274;149;27396;-79
2023/01/15 01:41:23;;;;;;;0.57;0.33;;;13.10;99.90;;;;;;939498;149;27467;-79
2023/01/15 01:44:02;;;;;;;0.40;0.40;;;13.00;99.90;;;;;;940715;149;27351;-79
2023/01/15 01:46:28;;;;;;;0.47;0.47;;;13.00;99.90;;;;;;937773;149;27327;-80
2023/01/15 01:49:04;;;;;;;0.50;0.50;;;13.00;99.90;;;;;;937655;149;27385;-80
2023/01/15 01:51:30;;;;;;;0.57;0.40;;;13.00;99.90;;;;;;934714;149;27362;-80
2023/01/15 01:53:57;;;;;;;0.87;0.37;;;13.00;99.90;;;;;;936137;149;27444;-80
2023/01/15 01:56:24;;;;;;;0.50;0.50;;;13.00;99.90;;;;;;937630;149;27360;-79
2023/01/15 01:58:50;;;;;;;0.40;0.40;;;12.90;99.90;;;;;;936842;149;27320;-79
2023/01/15 02:01:17;;;;;;;0.50;0.50;;;12.90;99.90;;;;;;937003;149;27537;-81
2023/01/15 02:03:43;;;;;;;0.50;0.40;;;13.00;99.90;;;;;;936336;149;27812;-79
2023/01/15 02:06:10;;;;;;;0.40;0.40;;;13.00;99.90;;;;;;937063;149;27457;-78
2023/01/15 02:08:38;;;;;;;0.40;0.40;;;13.00;99.90;;;;;;936725;149;27379;-79
2023/01/15 02:11:03;;;;;;;0.37;0.37;;;13.00;99.90;;;;;;935482;149;27468;-79
2023/01/15 02:13:51;;;;;;;0.33;0.33;;;13.00;99.90;;;;;;937359;149;27493;-78
2023/01/15 02:16:23;;;;;;;0.37;0.20;;;13.00;99.90;;;;;;937142;149;27381;-79
2023/01/15 02:19:14;;;;;;;0.20;0.20;;;13.00;99.90;;;;;;934926;149;27352;-79
2023/01/15 02:21:47;;;;;;;0.30;0.30;;;13.00;99.90;;;;;;934881;149;27328;-79
2023/01/15 02:24:28;;;;;;;0.30;0.30;;;13.00;99.90;;;;;;935053;149;27429;-79
2023/01/15 02:27:03;;;;;;;0.40;0.37;;;13.00;99.90;;;;;;934629;149;27343;-79
2023/01/15 02:29:30;;;;;;;0.30;0.30;;;13.00;99.90;;;;;;915224;150;27380;-80
2023/01/15 02:31:56;;;;;;;0.40;0.40;;;12.90;99.90;;;;;;934942;149;27488;-81
2023/01/15 02:34:26;;;;;;;0.30;0.30;;;12.80;99.90;;;;;;946407;146;27404;-79
2023/01/15 02:36:53;;;;;;;0.20;0.20;;;12.80;99.90;;;;;;955323;146;27434;-79
2023/01/15 02:39:19;;;;;;;0.77;0.30;;;12.70;99.90;;;;;;955668;146;27316;-79
2023/01/15 02:41:46;;;;;;;0.37;0.37;;;12.70;99.90;;;;;;956341;146;27303;-79
2023/01/15 02:44:12;;;;;;;0.30;0.20;;;12.60;99.90;;;;;;953365;146;27385;-80
2023/01/15 02:46:39;;;;;;;0.20;0.20;;;12.60;99.90;;;;;;954881;146;27382;-78
2023/01/15 02:49:06;;;;;;;0.20;0.20;;;12.50;99.90;;;;;;954844;147;27718;-79
2023/01/15 02:51:32;;;;;;;0.30;0.30;;;12.50;99.90;;;;;;955356;147;27313;-79
2023/01/15 02:53:59;;;;;;;0.20;0.20;;;12.50;99.90;;;;;;952884;146;27403;-79
2023/01/15 02:56:25;;;;;;;0.30;0.20;;;12.50;99.90;;;;;;956798;146;27387;-79
2023/01/15 02:58:52;;;;;;;0.20;0.20;;;12.40;99.90;;;;;;953847;146;27451;-79
2023/01/15 03:01:18;;;;;;;0.30;0.30;;;12.40;99.90;;;;;;953429;146;27457;-80
2023/01/15 03:03:48;;;;;;;0.40;0.40;;;12.30;99.90;;;;;;954289;146;27447;-79
2023/01/15 03:06:33;;;;;;;0.30;0.20;;;12.30;99.90;;;;;;954769;146;27493;-79
2023/01/15 03:08:59;;;;;;;0.20;0.20;;;12.30;99.90;;;;;;954346;146;27380;-79
2023/01/15 03:11:26;;;;;;;0.20;0.20;;;12.20;99.90;;;;;;954834;146;27307;-80
2023/01/15 03:14:02;;;;;;;0.20;0.20;;;12.10;99.90;;;;;;955170;146;27506;-79
2023/01/15 03:16:34;;;;;;;0.50;0.30;;;12.00;99.90;;;;;;953795;146;27318;-80
2023/01/15 03:19:19;;;;;;;0.27;0.27;;;11.90;99.90;;;;;;955673;146;27411;-79
2023/01/15 03:21:46;;;;;;;0.20;0.20;;;11.70;99.90;;;;;;955117;146;27483;-79
2023/01/15 03:24:12;;;;;;;1.00;0.40;;;11.60;99.90;;;;;;956265;146;27367;-78
2023/01/15 03:26:39;;;;;;;0.20;0.20;;;11.50;99.90;;;;;;957554;146;27366;-78
2023/01/15 03:29:05;;;;;;;0.30;0.30;;;11.40;99.90;;;;;;954650;146;27344;-79
2023/01/15 03:31:32;;;;;;;0.27;0.27;;;11.40;99.90;;;;;;954870;146;27468;-81
2023/01/15 03:33:59;;;;;;;0.33;0.33;;;11.30;99.90;;;;;;954190;146;27471;-79
2023/01/15 03:36:25;;;;;;;0.30;0.30;;;11.30;99.90;;;;;;938411;149;27454;-79
2023/01/15 03:38:52;;;;;;;0.30;0.30;;;11.20;99.90;;;;;;935754;149;27357;-79
2023/01/15 03:41:24;;;;;;;0.30;0.23;;;11.20;99.90;;;;;;935849;149;27370;-79
2023/01/15 03:44:00;;;;;;;0.20;0.20;;;11.20;99.90;;;;;;934986;150;27390;-79
2023/01/15 03:46:29;;;;;;;0.20;0.20;;;11.10;99.90;;;;;;935243;149;27902;-79
2023/01/15 03:48:55;;;;;;;0.30;0.30;;;11.10;99.90;;;;;;899809;149;27446;-78
2023/01/15 03:51:25;;;;;;;1.40;0.30;;;11.00;99.90;;;;;;935043;149;27481;-79
2023/01/15 03:53:54;;;;;;;0.20;0.20;;;11.00;99.90;;;;;;935379;149;27392;-79
2023/01/15 03:56:36;;;;;;;0.20;0.20;;;11.00;99.90;;;;;;936546;149;27786;-80
2023/01/15 03:59:08;;;;;;;0.20;0.20;;;10.90;99.90;;;;;;935940;149;27428;-78
2023/01/15 04:01:35;;;;;;;0.27;0.27;;;10.90;99.90;;;;;;936412;149;27506;-82
2023/01/15 04:04:01;;;;;;;0.30;0.30;;;10.80;99.90;;;;;;936896;149;27396;-82
2023/01/15 04:06:28;;;;;;;0.40;0.40;;;10.80;99.90;;;;;;937348;149;27343;-82
2023/01/15 04:08:55;;;;;;;0.20;0.20;;;10.70;99.90;;;;;;937313;149;27448;-82
2023/01/15 04:11:21;;;;;;;0.67;0.40;;;10.70;99.90;;;;;;940305;149;27463;-82
2023/01/15 04:13:48;;;;;;;0.20;0.20;;;10.60;99.90;;;;;;938593;149;27390;-82
2023/01/15 04:16:14;;;;;;;0.20;0.20;;;10.60;99.90;;;;;;937995;149;27324;-82
2023/01/15 04:18:41;;;;;;;0.30;0.30;;;10.50;99.90;;;;;;936068;149;27381;-82
2023/01/15 04:21:08;;;;;;;0.30;0.30;;;10.40;99.90;;;;;;936431;149;27343;-82
2023/01/15 04:23:34;;;;;;;0.30;0.30;;;10.40;99.90;;;;;;936329;149;27391;-82
2023/01/15 04:26:01;;;;;;;0.30;0.30;;;10.40;99.90;;;;;;936330;149;27380;-82
2023/01/15 04:28:27;;;;;;;0.60;0.50;;;10.30;99.90;;;;;;937312;149;27363;-82
2023/01/15 04:30:54;;;;;;;0.27;0.20;;;10.20;99.90;;;;;;938800;149;27450;-82
2023/01/15 04:33:20;;;;;;;0.33;0.30;;;10.20;99.90;;;;;;937371;149;27353;-82
2023/01/15 04:35:47;;;;;;;0.70;0.30;;;10.10;99.90;;;;;;936977;149;27426;-82
2023/01/15 04:38:14;;;;;;;0.33;0.33;;;10.00;99.90;;;;;;937437;149;28369;-82
2023/01/15 04:46:03;;;;;;;0.80;0.40;;;9.70;99.90;;;;;;937002;149;27394;-83
2023/01/15 04:48:30;;;;;;;0.43;0.37;;;9.60;99.90;;;;;;937668;149;27779;-82
2023/01/15 04:50:56;;;;;;;0.40;0.37;;;9.50;99.90;;;;;;936212;149;27509;-82
2023/01/15 04:53:23;;;;;;;0.30;0.30;;;9.50;99.90;;;;;;935664;149;27886;-83
2023/01/15 04:55:50;;;;;;;0.40;0.40;;;9.40;99.90;;;;;;936477;149;27388;-82
2023/01/15 04:58:16;;;;;;;0.63;0.30;;;9.30;99.90;;;;;;938914;149;27390;-82
2023/01/15 05:00:43;;;;;;;2.67;0.40;;;9.30;99.90;;;;;;937337;149;27394;-83
2023/01/15 05:03:09;;;;;;;0.40;0.40;;;9.20;99.90;;;;;;938314;149;27356;-82
2023/01/15 05:05:36;;;;;;;0.30;0.30;;;9.20;99.90;;;;;;938040;149;27375;-83
2023/01/15 05:08:02;;;;;;;0.73;0.40;;;9.10;99.90;;;;;;936938;149;27369;-82
2023/01/15 05:10:29;;;;;;;0.43;0.43;;;9.10;99.90;;;;;;938398;149;27382;-82
2023/01/15 05:12:56;;;;;;;0.40;0.40;;;9.00;99.90;;;;;;937448;149;27381;-83
2023/01/15 05:15:22;;;;;;;0.40;0.40;;;9.00;99.90;;;;;;938329;149;27373;-82
2023/01/15 05:17:49;;;;;;;0.50;0.40;;;9.00;99.90;;;;;;938644;149;27480;-83
2023/01/15 05:20:15;;;;;;;0.33;0.33;;;8.90;99.90;;;;;;938051;149;27489;-82
2023/01/15 05:22:42;;;;;;;0.70;0.30;;;8.90;99.90;;;;;;939189;149;27378;-82
2023/01/15 05:25:09;;;;;;;0.37;0.37;;;8.90;99.90;;;;;;937475;149;27426;-82
2023/01/15 05:27:35;;;;;;;0.73;0.50;;;8.90;99.90;;;;;;937482;149;27476;-82
2023/01/15 05:30:02;;;;;;;0.53;0.30;;;8.80;99.90;;;;;;937726;149;27378;-83
2023/01/15 05:32:28;;;;;;;0.30;0.30;;;8.80;99.90;;;;;;939184;149;27378;-83
2023/01/15 05:34:55;;;;;;;0.20;0.20;;;8.80;99.90;;;;;;938286;149;27378;-82
2023/01/15 05:37:21;;;;;;;0.30;0.30;;;8.80;99.90;;;;;;951636;146;27446;-83
2023/01/15 05:39:48;;;;;;;0.87;0.40;;;8.80;99.90;;;;;;956020;147;27320;-82
2023/01/15 05:42:15;;;;;;;0.33;0.33;;;8.80;99.90;;;;;;955388;146;27452;-82
2023/01/15 05:44:41;;;;;;;0.63;0.47;;;8.70;99.90;;;;;;956371;146;27413;-82
2023/01/15 05:47:08;;;;;;;0.43;0.30;;;8.70;99.90;;;;;;954194;147;27356;-82
2023/01/15 05:49:34;;;;;;;0.40;0.40;;;8.80;99.90;;;;;;959428;146;27402;-82
2023/01/15 05:52:01;;;;;;;1.20;0.43;;;8.80;99.90;;;;;;957465;146;28055;-82
2023/01/15 05:54:31;;;;;;;0.37;0.37;;;8.80;99.90;;;;;;955515;146;27374;-82
2023/01/15 05:56:57;;;;;;;0.30;0.30;;;8.80;99.90;;;;;;956059;146;28537;-82
2023/01/15 05:59:24;;;;;;;0.30;0.27;;;8.80;99.90;;;;;;956077;146;27312;-82
2023/01/15 06:01:50;;;;;;;0.30;0.30;;;8.80;99.90;;;;;;956495;146;27298;-82
2023/01/15 06:04:19;;;;;;;0.30;0.30;;;8.80;99.90;;;;;;957457;146;27387;-82
2023/01/15 06:06:43;;;;;;;0.83;0.57;;;8.80;99.90;;;;;;955364;146;27360;-82
2023/01/15 06:09:10;;;;;;;0.30;0.30;;;8.80;99.90;;;;;;954334;147;27474;-82
2023/01/15 06:11:37;;;;;;;0.40;0.40;;;8.80;99.90;;;;;;957400;146;27345;-81
2023/01/15 06:14:03;;;;;;;0.40;0.40;;;8.80;99.90;;;;;;956275;146;27354;-81
2023/01/15 06:16:30;;;;;;;0.30;0.30;;;8.90;99.90;;;;;;954711;146;27451;-82
2023/01/15 06:18:59;;;;;;;0.37;0.37;;;8.90;99.90;;;;;;955372;146;27476;-82
2023/01/15 06:21:26;;;;;;;0.30;0.30;;;8.90;99.90;;;;;;954939;146;27281;-82
2023/01/15 06:23:53;;;;;;;1.63;0.60;;;8.90;99.90;;;;;;955599;146;27435;-82
2023/01/15 06:26:19;;;;;;;1.00;0.40;;;8.90;99.90;;;;;;955667;146;27398;-82
2023/01/15 06:28:45;;;;;;;0.30;0.30;;;8.90;99.90;;;;;;955615;146;27416;-82
2023/01/15 06:31:12;;;;;;;0.50;0.50;;;8.90;99.90;;;;;;954702;146;27355;-82
2023/01/15 06:33:39;;;;;;;0.40;0.40;;;8.90;99.90;;;;;;954930;146;27391;-82
2023/01/15 06:36:08;;;;;;;0.50;0.50;;;8.90;99.90;;;;;;955908;146;27328;-82
2023/01/15 06:38:34;;;;;;;0.70;0.50;;;8.90;99.90;;;;;;953264;146;28150;-82
2023/01/15 06:41:01;;;;;;;0.30;0.30;;;8.90;99.90;;;;;;922379;152;27378;-81
2023/01/15 06:48:57;;;;;;;1.77;0.60;;;8.90;99.90;;;;;;927452;152;27417;-81
2023/01/15 06:51:24;;;;;;;2.47;0.53;;;8.90;99.90;;;;;;941958;149;27360;-81
2023/01/15 06:53:50;;;;;;;0.30;0.30;;;8.90;99.90;;;;;;942919;149;27317;-81
2023/01/15 06:56:17;;;;;;;0.93;0.50;;;8.80;99.90;;;;;;926659;152;27351;-81
2023/01/15 06:58:43;;;;;;;0.57;0.50;;;8.80;99.90;;;;;;939447;152;27382;-81
2023/01/15 07:01:10;;;;;;;0.50;0.40;;;8.80;99.90;;;;;;943041;149;27389;-80
2023/01/15 07:03:36;;;;;;;0.33;0.33;;;8.80;99.90;;;;;;923484;152;27510;-80
2023/01/15 07:06:06;;;;;;;0.63;0.47;;;8.80;99.90;;;;;;927124;152;27728;-81
2023/01/15 07:08:33;;;;;;;0.37;0.37;;;8.80;99.90;;;;;;922606;152;27516;-81
2023/01/15 07:11:05;;;;;;;0.30;0.30;;;8.80;99.90;;;;;;942714;149;28204;-81
2023/01/15 07:13:31;;;;;;;0.67;0.33;;;8.80;99.90;;;;;;926708;152;27379;-81
2023/01/15 07:16:00;;;;;;;0.40;0.40;;;8.80;99.90;;;;;;930415;152;27371;-81
2023/01/15 07:18:27;;;;;;;0.67;0.40;;;8.80;99.90;;;;;;929584;152;27392;-81
2023/01/15 07:20:54;;;;;;;0.83;0.63;;;8.80;99.90;;;;;;941799;149;27346;-81
2023/01/15 07:23:23;;;;;;;2.33;0.53;;;8.80;99.90;;;;;;943865;149;27398;-81
2023/01/15 07:25:49;;;;;;;1.33;0.47;;;8.80;99.90;;;;;;937556;152;27364;-81
2023/01/15 07:28:16;;;;;;;0.97;0.53;;;8.80;99.90;;;;;;939717;152;27478;-81
2023/01/15 07:30:43;;;;;;;3.10;0.73;;;8.80;99.90;;;;;;939027;152;27388;-81
2023/01/15 07:33:09;;;;;;;0.63;0.63;;;8.80;99.90;;;;;;938451;152;27492;-81
2023/01/15 07:35:36;;;;;;;0.50;0.30;;;8.80;99.90;;;;;;939840;152;28209;-81
2023/01/15 07:38:02;;;;;;;0.77;0.50;;;8.80;99.90;;;;;;934240;152;27395;-81
2023/01/15 07:40:29;;;;;;;0.67;0.67;;;8.80;99.90;;;;;;929946;153;27419;-81
2023/01/15 07:51:10;;;;;;;0.80;0.80;;;8.80;99.90;;;;;;930190;153;27312;-81
2023/01/15 07:53:36;;;;;;;1.00;0.70;;;8.80;99.90;;;;;;930155;153;28006;-81
2023/01/15 07:56:03;;;;;;;0.50;0.50;;;8.80;99.90;;;;;;929996;153;27436;-80
2023/01/15 07:58:29;;;;;;;0.87;0.60;;;8.80;99.90;;;;;;931686;153;27417;-81
2023/01/15 08:00:56;;;;;;;0.70;0.47;;;8.80;99.90;;;;;;929981;153;27379;-81
2023/01/15 08:03:23;;;;;;;0.40;0.40;;;8.80;99.90;;;;;;929775;153;27387;-81
2023/01/15 08:05:49;;;;;;;0.40;0.40;;;8.80;99.90;;;;;;920026;153;28035;-81
2023/01/15 08:08:16;;;;;;;0.87;0.60;;;8.80;99.90;;;;;;949163;148;27475;-81
2023/01/15 08:16:12;;;;;;;1.17;0.40;;;8.80;99.90;;;;;;947237;148;27797;-81
2023/01/15 08:18:39;;;;;;;0.80;0.57;;;8.80;99.90;;;;;;949955;148;27771;-81
2023/01/15 08:21:05;;;;;;;0.40;0.40;;;8.80;99.90;;;;;;948390;148;27355;-81
2023/01/15 08:23:32;;;;;;;0.40;0.40;;;8.70;99.90;;;;;;949085;148;27438;-81
2023/01/15 08:25:59;;;;;;;0.37;0.37;;;8.70;99.90;;;;;;946927;148;27347;-81
2023/01/15 08:28:25;;;;;;;0.73;0.50;;;8.70;99.90;;;;;;945493;148;27407;-81
2023/01/15 08:30:51;;;;;;;3.93;2.00;;;8.70;99.90;;;;;;948645;148;27463;-81
2023/01/15 08:33:18;;;;;;;16.23;11.73;;;8.70;99.90;;;;;;947325;148;27406;-81
2023/01/15 08:35:45;;;;;;;5.50;5.00;;;8.70;99.90;;;;;;945839;148;27286;-81
2023/01/15 08:38:11;;;;;;;3.00;2.70;;;8.70;99.90;;;;;;950622;148;27371;-81
2023/01/15 08:40:57;;;;;;;2.13;2.03;;;8.70;99.90;;;;;;956667;146;27389;-81
2023/01/15 08:43:04;;;;;;;1.20;1.20;;;8.70;99.90;;;;;;954563;146;27323;-82
2023/01/15 08:45:31;;;;;;;1.10;1.03;;;8.70;99.90;;;;;;952767;149;27333;-82
2023/01/15 08:47:59;;;;;;;1.67;0.77;;;8.70;99.90;;;;;;955579;146;27456;-82
2023/01/15 08:50:24;;;;;;;0.73;0.63;;;8.70;99.90;;;;;;955427;146;27562;-82
2023/01/15 08:52:51;;;;;;;0.30;0.30;;;8.70;99.90;;;;;;955140;147;27476;-81
2023/01/15 08:55:17;;;;;;;0.40;0.40;;;8.70;99.90;;;;;;956166;146;27351;-81
2023/01/15 08:57:44;;;;;;;0.50;0.50;;;8.70;99.90;;;;;;955949;146;27470;-81
2023/01/15 09:00:11;;;;;;;0.60;0.60;;;8.70;99.90;;;;;;955309;147;27409;-81
2023/01/15 09:02:37;;;;;;;0.50;0.50;;;8.70;99.90;;;;;;956871;147;27449;-81
2023/01/15 09:05:04;;;;;;;0.93;0.70;;;8.70;99.90;;;;;;955806;147;27394;-81
2023/01/15 09:07:30;;;;;;;0.50;0.50;;;8.70;99.90;;;;;;954214;147;27351;-82
2023/01/15 09:09:57;;;;;;;0.57;0.57;;;8.70;99.90;;;;;;955512;147;27381;-81
2023/01/15 09:12:26;;;;;;;0.57;0.57;;;8.70;99.90;;;;;;953807;147;27394;-81
2023/01/15 09:14:51;;;;;;;1.27;1.00;;;8.70;99.90;;;;;;953348;147;27379;-81
2023/01/15 09:17:17;;;;;;;1.60;1.50;;;8.70;99.90;;;;;;956488;147;27846;-82
2023/01/15 09:19:43;;;;;;;0.87;0.87;;;8.70;99.90;;;;;;952691;147;27387;-81
2023/01/15 09:22:10;;;;;;;1.13;0.87;;;8.70;99.90;;;;;;953708;147;27339;-81
2023/01/15 09:24:36;;;;;;;0.60;0.60;;;8.70;99.90;;;;;;955357;147;27430;-81
2023/01/15 09:27:03;;;;;;;0.50;0.50;;;8.70;99.90;;;;;;954741;147;27464;-81
2023/01/15 09:29:30;;;;;;;0.83;0.67;;;8.70;99.90;;;;;;955056;147;27467;-81
2023/01/15 09:31:56;;;;;;;0.60;0.60;;;8.70;99.90;;;;;;956658;147;27449;-81
2023/01/15 09:34:23;;;;;;;0.43;0.43;;;8.70;99.90;;;;;;955963;147;27375;-81
2023/01/15 09:36:50;;;;;;;0.70;0.50;;;8.70;99.90;;;;;;956608;147;27852;-81
2023/01/15 09:39:16;;;;;;;0.83;0.83;;;8.70;99.90;;;;;;954642;147;27398;-81
2023/01/15 09:42:17;;;;;;;0.60;0.60;;;8.70;99.90;;;;;;954838;147;27293;-81
2023/01/15 09:44:52;;;;;;;0.63;0.63;;;8.80;99.90;;;;;;955513;147;27434;-82
2023/01/15 09:47:25;;;;;;;0.50;0.50;;;8.80;99.90;;;;;;956226;147;27324;-81
2023/01/15 09:50:13;;;;;;;0.70;0.70;;;8.80;99.90;;;;;;954774;147;27468;-81
2023/01/15 09:53:16;;;;;;;0.47;0.47;;;8.80;99.90;;;;;;956314;147;27468;-81
2023/01/15 09:55:43;;;;;;;0.60;0.60;;;8.80;99.90;;;;;;954866;147;27343;-81
2023/01/15 09:58:09;;;;;;;0.87;0.60;;;8.80;99.90;;;;;;953759;147;27342;-82
2023/01/15 10:00:35;;;;;;;1.70;0.50;;;8.80;99.90;;;;;;955030;146;27285;-82
2023/01/15 10:03:20;;;;;;;0.40;0.40;;;8.80;99.90;;;;;;952250;146;27452;-82
2023/01/15 10:06:11;;;;;;;1.97;0.90;;;8.80;99.90;;;;;;953522;147;27391;-82
2023/01/15 10:08:38;;;;;;;0.40;0.40;;;8.90;99.90;;;;;;954498;146;27480;-81
2023/01/15 10:11:20;;;;;;;0.43;0.43;;;8.90;99.90;;;;;;953927;146;27348;-81
2023/01/15 10:13:45;;;;;;;0.50;0.50;;;8.90;99.90;;;;;;954726;146;27425;-81
2023/01/15 10:16:12;;;;;;;1.17;0.90;;;8.90;99.90;;;;;;954879;146;27360;-81
2023/01/15 10:18:42;;;;;;;0.73;0.73;;;8.90;99.90;;;;;;956510;146;27534;-81
2023/01/15 10:21:26;;;;;;;1.37;1.30;;;8.90;99.90;;;;;;953110;147;27446;-81
2023/01/15 10:24:04;;;;;;;2.00;1.90;;;8.90;99.90;;;;;;955429;146;27885;-81
2023/01/15 10:26:45;;;;;;;1.70;1.60;;;8.90;99.90;;;;;;953792;147;27477;-81
2023/01/15 10:29:24;;;;;;;2.20;1.70;;;8.90;99.90;;;;;;941928;149;27352;-81
2023/01/15 10:31:50;;;;;;;0.97;0.97;;;8.90;99.90;;;;;;937430;152;27334;-81
2023/01/15 10:34:39;;;;;;;1.40;1.30;;;8.90;99.90;;;;;;936452;152;27406;-81
2023/01/15 10:37:08;;;;;;;1.13;1.10;;;8.90;99.90;;;;;;937134;152;27362;-81
2023/01/15 10:40:13;;;;;;;1.07;1.00;;;8.90;99.90;;;;;;929089;152;27554;-81
2023/01/15 10:42:57;;;;;;;0.87;0.87;;;8.90;99.90;;;;;;918076;155;27836;-81
2023/01/15 10:45:24;;;;;;;2.90;0.83;;;8.90;99.90;;;;;;915603;155;27313;-81
2023/01/15 10:47:54;;;;;;;1.80;1.70;;;8.90;99.90;;;;;;920127;154;27781;-81
2023/01/15 10:50:20;;;;;;;1.17;1.17;;;9.00;99.90;;;;;;919273;154;27430;-81
2023/01/15 10:52:47;;;;;;;0.93;0.90;;;9.00;99.90;;;;;;920951;154;27844;-81
2023/01/15 10:55:16;;;;;;;0.80;0.80;;;9.00;99.90;;;;;;919001;154;27449;-81
2023/01/15 10:58:02;;;;;;;1.00;0.97;;;9.00;99.90;;;;;;919372;155;27825;-81
2023/01/15 11:00:28;;;;;;;2.60;1.00;;;9.00;99.90;;;;;;918938;154;27497;-81
2023/01/15 11:03:07;;;;;;;1.00;1.00;;;9.10;99.90;;;;;;919693;154;27415;-81
2023/01/15 11:05:30;;;;;;;1.07;1.07;;;9.10;99.90;;;;;;918703;154;27343;-81
2023/01/15 11:07:57;;;;;;;1.00;1.00;;;9.10;99.90;;;;;;919121;155;27297;-80
2023/01/15 11:10:23;;;;;;;2.97;2.27;;;9.10;99.90;;;;;;919067;154;27470;-81
2023/01/15 11:21:15;;;;;;;0.93;0.83;;;9.20;99.90;;;;;;919717;154;27976;-81
2023/01/15 11:23:42;;;;;;;1.73;0.90;;;9.20;99.90;;;;;;919802;154;27460;-80
2023/01/15 11:26:09;;;;;;;1.13;1.03;;;9.20;99.90;;;;;;921059;155;27337;-80
2023/01/15 11:28:42;;;;;;;1.23;1.13;;;9.20;99.90;;;;;;907804;155;27348;-80
2023/01/15 11:31:05;;;;;;;1.30;1.30;;;9.30;99.90;;;;;;937505;151;27386;-81
2023/01/15 11:33:31;;;;;;;1.10;0.77;;;9.30;99.90;;;;;;938378;151;27393;-81
2023/01/15 11:35:58;;;;;;;0.83;0.83;;;9.30;99.90;;;;;;938735;151;27407;-81
2023/01/15 11:38:30;;;;;;;0.87;0.87;;;9.30;99.90;;;;;;934127;151;27848;-81
2023/01/15 11:41:00;;;;;;;1.47;0.73;;;9.30;99.90;;;;;;939095;149;27460;-81
2023/01/15 11:50:42;;;;;;;1.93;0.77;;;9.30;99.90;;;;;;938239;149;27317;-81
2023/01/15 11:51:42;;;;;;;3.97;2.63;;;9.30;99.90;;;;;;934481;149;27484;-81
2023/01/15 11:54:09;;;;;;;3.83;2.27;;;9.30;99.90;;;;;;937641;149;27467;-81
2023/01/15 11:56:35;;;;;;;5.37;3.17;;;9.30;99.90;;;;;;939905;149;27433;-81
2023/01/15 11:59:02;;;;;;;2.73;2.23;;;9.30;99.90;;;;;;938610;150;27284;-81
2023/01/15 12:01:32;;;;;;;3.23;1.70;;;9.30;99.90;;;;;;936166;149;27375;-81
2023/01/15 12:03:58;;;;;;;2.10;1.23;;;9.30;99.90;;;;;;937737;149;27467;-81
2023/01/15 12:06:25;;;;;;;1.43;0.90;;;9.30;99.90;;;;;;936230;149;27397;-81
2023/01/15 12:08:51;;;;;;;0.67;0.43;;;9.40;99.90;;;;;;938440;149;27352;-81
2023/01/15 12:11:32;;;;;;;1.73;0.80;;;9.40;99.90;;;;;;935573;149;27363;-81
2023/01/15 12:14:17;;;;;;;2.60;1.03;;;9.40;99.90;;;;;;937470;149;27390;-82
2023/01/15 12:16:52;;;;;;;1.17;0.50;;;9.40;99.80;;;;;;936485;149;27457;-82
2023/01/15 12:19:43;;;;;;;0.90;0.87;;;9.40;99.70;;;;;;937481;149;27345;-81
2023/01/15 12:22:15;;;;;;;1.60;0.73;;;9.30;99.70;;;;;;937226;149;27345;-81
2023/01/15 12:25:12;;;;;;;1.10;0.83;;;9.30;99.60;;;;;;937384;149;27417;-82
2023/01/15 12:27:56;;;;;;;1.50;1.10;;;9.30;99.60;;;;;;937747;149;27349;-82
2023/01/15 12:30:32;;;;;;;1.57;0.90;;;9.30;99.40;;;;;;937879;149;27369;-82
2023/01/15 12:33:04;;;;;;;2.30;1.00;;;9.30;98.90;;;;;;939550;149;27727;-82
2023/01/15 12:35:31;;;;;;;0.70;0.70;;;9.30;98.90;;;;;;936266;149;27412;-81
2023/01/15 12:38:30;;;;;;;2.17;0.70;;;9.30;98.80;;;;;;937751;149;27432;-82
2023/01/15 12:40:55;;;;;;;0.57;0.57;;;9.20;98.80;;;;;;938104;149;27376;-82
2023/01/15 12:46:06;;;;;;;1.57;0.80;;;9.20;98.80;;;;;;935038;149;27513;-82
2023/01/15 12:48:45;;;;;;;1.57;0.70;;;9.20;98.80;;;;;;936806;149;27376;-82
2023/01/15 12:51:11;;;;;;;1.83;0.57;;;9.20;98.70;;;;;;921073;149;27470;-82
2023/01/15 12:53:38;;;;;;;1.47;0.63;;;9.20;98.80;;;;;;937520;149;27440;-82
2023/01/15 12:56:23;;;;;;;2.87;0.90;;;9.30;98.70;;;;;;937464;150;27319;-81
2023/01/15 12:58:52;;;;;;;0.93;0.80;;;9.30;99.00;;;;;;937466;149;27319;-82
2023/01/15 13:01:53;;;;;;;0.77;0.53;;;9.40;98.50;;;;;;935728;149;27447;-82
2023/01/15 13:04:22;;;;;;;1.03;0.57;;;9.40;98.40;;;;;;936608;149;27329;-82
2023/01/15 13:06:49;;;;;;;1.30;1.20;;;9.40;98.30;;;;;;938052;149;28243;-82
2023/01/15 13:09:18;;;;;;;1.20;1.10;;;9.40;98.00;;;;;;933261;149;27723;-82
2023/01/15 13:11:45;;;;;;;1.03;1.00;;;9.50;97.80;;;;;;936920;149;27307;-82
2023/01/15 13:14:11;;;;;;;1.87;1.47;;;9.50;98.50;;;;;;937401;149;27483;-82
2023/01/15 13:16:40;;;;;;;3.20;2.47;;;9.60;99.00;;;;;;934940;149;27375;-82
2023/01/15 13:19:19;;;;;;;1.80;1.50;;;9.70;99.40;;;;;;935547;149;27347;-82
2023/01/15 13:21:45;;;;;;;3.20;1.70;;;9.80;99.10;;;;;;935601;149;27505;-82
2023/01/15 13:24:27;;;;;;;3.37;2.50;;;10.00;98.90;;;;;;934720;149;27423;-81
2023/01/15 13:27:02;;;;;;;2.53;2.20;;;10.00;97.50;;;;;;938467;149;27389;-82
2023/01/15 13:29:49;;;;;;;4.73;3.57;;;10.10;97.30;;;;;;936030;149;27483;-82
2023/01/15 13:32:19;;;;;;;5.97;3.67;;;10.20;95.30;;;;;;935507;149;27813;-82
2023/01/15 13:34:48;;;;;;;7.33;4.50;;;10.10;95.40;;;;;;938834;149;27386;-82
2023/01/15 13:37:18;;;;;;;7.30;3.67;;;10.10;94.70;;;;;;938643;149;27382;-81
2023/01/15 13:39:44;;;;;;;7.97;3.63;;;10.10;93.90;;;;;;937295;149;27292;-81
2023/01/15 13:42:31;;;;;;;3.13;2.67;;;10.00;93.70;;;;;;936019;149;27418;-81
2023/01/15 13:45:07;;;;;;;2.40;1.53;;;10.00;93.60;;;;;;937955;149;27471;-81
2023/01/15 13:47:34;;;;;;;1.47;1.20;;;9.90;93.40;;;;;;935279;149;27344;-81